Time;durP1;ratioP1;P1;durP2;ratioP2;P2;SDS_P1;SDS_P2;PMS_P1;PMS_P2;Temp;Humidity;BMP_temperature;BMP_pressure;BME280_temperature;BME280_humidity;BME280_pressure;Samples;Min_cycle;Max_cycle;Signal;HPM_P1;HPM_P2
2023/12/14 00:01:55;;;;;;;38.30;19.37;;;;;;;;;;4356762;32;317781;-81
2023/12/14 00:04:22;;;;;;;34.73;20.57;;;;;;;;;;4366772;32;318548;-80
2023/12/14 00:06:50;;;;;;;33.70;18.80;;;;;;;;;;4367214;32;318526;-80
2023/12/14 00:09:17;;;;;;;29.17;18.13;;;;;;;;;;4349774;32;318630;-80
2023/12/14 00:11:44;;;;;;;24.83;15.33;;;;;;;;;;4367357;32;318456;-80
2023/12/14 00:14:11;;;;;;;26.20;14.47;;;;;;;;;;4349348;32;333705;-80
2023/12/14 00:16:38;;;;;;;32.03;15.63;;;;;;;;;;4364167;32;345575;-81
2023/12/14 00:19:05;;;;;;;31.50;16.83;;;;;;;;;;4352664;32;318699;-81
2023/12/14 00:21:32;;;;;;;28.27;15.63;;;;;;;;;;4366044;32;319486;-81
2023/12/14 00:24:00;;;;;;;27.60;15.67;;;;;;;;;;4350017;32;342504;-82
2023/12/14 00:26:27;;;;;;;20.73;12.60;;;;;;;;;;4367810;32;318368;-82
2023/12/14 00:28:55;;;;;;;21.30;11.40;;;;;;;;;;4367542;32;318550;-83
2023/12/14 00:31:23;;;;;;;27.90;13.90;;;;;;;;;;4355655;32;317648;-82
2023/12/14 00:33:50;;;;;;;24.97;13.47;;;;;;;;;;4367387;32;318331;-82
2023/12/14 00:36:20;;;;;;;26.07;14.67;;;;;;;;;;4357610;32;318348;-82
2023/12/14 00:38:47;;;;;;;34.13;18.77;;;;;;;;;;4352631;32;318653;-82
2023/12/14 00:41:15;;;;;;;33.97;18.70;;;;;;;;;;4350659;32;318419;-81
2023/12/14 00:43:42;;;;;;;30.47;17.97;;;;;;;;;;4368562;32;318468;-82
2023/12/14 00:46:09;;;;;;;36.23;19.50;;;;;;;;;;4358149;32;318434;-81
2023/12/14 00:48:36;;;;;;;32.23;16.50;;;;;;;;;;4367000;32;318335;-81
2023/12/14 00:51:03;;;;;;;25.07;13.80;;;;;;;;;;4350833;32;324394;-81
2023/12/14 00:53:30;;;;;;;27.87;13.93;;;;;;;;;;4364982;32;318311;-81
2023/12/14 00:55:57;;;;;;;21.40;13.00;;;;;;;;;;4355314;32;337837;-81
2023/12/14 00:58:25;;;;;;;30.27;15.47;;;;;;;;;;4368415;32;318636;-81
2023/12/14 01:00:54;;;;;;;20.07;12.70;;;;;;;;;;4367223;32;318432;-80
2023/12/14 01:03:21;;;;;;;29.77;15.20;;;;;;;;;;4348620;32;417119;-81
2023/12/14 01:05:47;;;;;;;22.67;15.10;;;;;;;;;;4365667;32;318165;-81
2023/12/14 01:08:14;;;;;;;29.30;15.77;;;;;;;;;;4356679;32;318601;-82
2023/12/14 01:10:41;;;;;;;34.23;16.37;;;;;;;;;;4366662;32;318461;-82
2023/12/14 01:13:08;;;;;;;27.83;14.13;;;;;;;;;;4350479;32;318387;-80
2023/12/14 01:15:37;;;;;;;29.93;15.87;;;;;;;;;;4366229;32;318514;-81
2023/12/14 01:18:04;;;;;;;26.30;15.37;;;;;;;;;;4356819;32;318563;-81
2023/12/14 01:20:31;;;;;;;38.37;20.93;;;;;;;;;;4367465;32;318300;-82
2023/12/14 01:22:58;;;;;;;30.97;16.53;;;;;;;;;;4356495;32;318304;-82
2023/12/14 01:25:25;;;;;;;25.73;15.67;;;;;;;;;;4360639;32;318458;-82
2023/12/14 01:27:52;;;;;;;30.90;16.90;;;;;;;;;;4367072;32;318274;-81
2023/12/14 01:30:19;;;;;;;32.73;17.27;;;;;;;;;;4360200;32;318464;-82
2023/12/14 01:32:47;;;;;;;25.67;14.57;;;;;;;;;;4366511;32;318654;-81
2023/12/14 01:35:16;;;;;;;33.93;16.77;;;;;;;;;;4361928;32;318306;-82
2023/12/14 01:37:43;;;;;;;30.60;20.77;;;;;;;;;;4368932;32;318506;-81
2023/12/14 01:40:11;;;;;;;35.47;19.97;;;;;;;;;;4363123;32;318754;-80
2023/12/14 01:42:37;;;;;;;39.83;25.73;;;;;;;;;;4380435;32;318354;-81
2023/12/14 01:45:05;;;;;;;44.87;27.50;;;;;;;;;;4356654;32;318654;-82
2023/12/14 01:47:32;;;;;;;38.40;23.10;;;;;;;;;;4363486;32;318135;-81
2023/12/14 01:50:00;;;;;;;38.77;23.03;;;;;;;;;;4354613;32;318333;-81
2023/12/14 01:52:27;;;;;;;42.97;21.93;;;;;;;;;;4365479;32;318322;-81
2023/12/14 01:54:55;;;;;;;36.13;20.93;;;;;;;;;;4364396;32;349032;-80
2023/12/14 01:57:22;;;;;;;24.73;14.27;;;;;;;;;;4348502;32;418507;-80
2023/12/14 01:59:48;;;;;;;20.67;11.23;;;;;;;;;;4364611;32;318218;-80
2023/12/14 02:02:15;;;;;;;43.10;24.20;;;;;;;;;;4354348;32;318302;-82
2023/12/14 02:04:42;;;;;;;46.20;22.87;;;;;;;;;;4365805;32;318681;-82
2023/12/14 02:07:11;;;;;;;33.77;19.77;;;;;;;;;;4351517;32;318807;-81
2023/12/14 02:09:38;;;;;;;22.97;13.67;;;;;;;;;;4363428;32;318233;-81
2023/12/14 02:12:06;;;;;;;25.37;14.20;;;;;;;;;;4356879;32;318576;-81
2023/12/14 02:14:32;;;;;;;23.50;13.83;;;;;;;;;;4367554;32;318554;-81
2023/12/14 02:16:59;;;;;;;22.00;13.70;;;;;;;;;;4357266;32;318152;-82
2023/12/14 02:19:25;;;;;;;19.83;11.47;;;;;;;;;;4359912;32;317733;-81
2023/12/14 02:21:52;;;;;;;53.60;25.97;;;;;;;;;;4366254;32;317706;-81
2023/12/14 02:24:21;;;;;;;72.00;34.20;;;;;;;;;;4353495;32;417994;-82
2023/12/14 02:26:48;;;;;;;57.70;32.63;;;;;;;;;;4376407;32;318244;-81
2023/12/14 02:29:14;;;;;;;50.83;26.53;;;;;;;;;;4363560;32;317995;-80
2023/12/14 02:31:41;;;;;;;38.63;22.27;;;;;;;;;;4380131;32;317270;-80
2023/12/14 02:34:08;;;;;;;34.93;19.77;;;;;;;;;;4369839;32;317872;-80
2023/12/14 02:36:35;;;;;;;28.70;17.17;;;;;;;;;;4379048;32;317119;-80
2023/12/14 02:39:02;;;;;;;21.40;13.50;;;;;;;;;;4360801;32;318269;-81
2023/12/14 02:41:30;;;;;;;29.90;15.60;;;;;;;;;;4345646;32;318329;-81
2023/12/14 02:43:57;;;;;;;24.97;15.20;;;;;;;;;;4342822;32;318129;-82
2023/12/14 02:46:24;;;;;;;28.00;15.93;;;;;;;;;;4363189;32;318194;-81
2023/12/14 02:48:51;;;;;;;27.40;15.77;;;;;;;;;;4364006;32;317580;-81
2023/12/14 02:51:18;;;;;;;34.23;17.83;;;;;;;;;;4347667;32;318445;-81
2023/12/14 02:53:45;;;;;;;31.00;16.47;;;;;;;;;;4363170;32;317555;-81
2023/12/14 02:56:12;;;;;;;33.77;17.47;;;;;;;;;;4351649;32;318336;-81
2023/12/14 02:58:40;;;;;;;26.67;16.60;;;;;;;;;;4362048;32;318541;-81
2023/12/14 03:01:07;;;;;;;33.13;17.47;;;;;;;;;;4346945;32;318829;-81
2023/12/14 03:03:34;;;;;;;27.10;16.60;;;;;;;;;;4364096;32;318190;-81
2023/12/14 03:06:01;;;;;;;25.43;15.30;;;;;;;;;;4354199;32;318274;-81
2023/12/14 03:08:27;;;;;;;24.73;12.97;;;;;;;;;;4361339;32;318235;-82
2023/12/14 03:10:55;;;;;;;33.70;16.83;;;;;;;;;;4361133;32;317572;-80
2023/12/14 03:13:22;;;;;;;25.50;15.00;;;;;;;;;;4355907;32;318339;-81
2023/12/14 03:15:50;;;;;;;27.40;14.37;;;;;;;;;;4360663;32;318313;-81
2023/12/14 03:18:17;;;;;;;27.50;15.83;;;;;;;;;;4353881;32;318238;-81
2023/12/14 03:20:44;;;;;;;27.57;14.37;;;;;;;;;;4363687;32;318246;-82
2023/12/14 03:23:11;;;;;;;20.40;13.03;;;;;;;;;;4342680;32;318392;-81
2023/12/14 03:25:38;;;;;;;19.57;11.57;;;;;;;;;;4362206;32;318053;-81
2023/12/14 03:28:05;;;;;;;14.90;10.67;;;;;;;;;;4353142;32;318044;-80
2023/12/14 03:30:31;;;;;;;20.53;11.57;;;;;;;;;;4362942;32;318167;-82
2023/12/14 03:33:00;;;;;;;20.13;12.60;;;;;;;;;;4353028;32;318320;-81
2023/12/14 03:35:27;;;;;;;22.27;11.43;;;;;;;;;;4358281;32;318505;-82
2023/12/14 03:37:54;;;;;;;26.10;12.97;;;;;;;;;;4362214;32;317401;-82
2023/12/14 03:40:20;;;;;;;24.10;15.27;;;;;;;;;;4358070;32;417383;-81
2023/12/14 03:42:47;;;;;;;33.33;19.93;;;;;;;;;;4364695;32;341371;-81
2023/12/14 03:45:14;;;;;;;33.17;18.13;;;;;;;;;;4348463;32;318296;-81
2023/12/14 03:47:41;;;;;;;24.87;15.27;;;;;;;;;;4358218;32;318407;-81
2023/12/14 03:50:12;;;;;;;29.63;14.87;;;;;;;;;;4342843;32;318248;-80
2023/12/14 03:52:39;;;;;;;24.47;14.93;;;;;;;;;;4353328;32;318477;-81
2023/12/14 03:55:07;;;;;;;27.83;16.20;;;;;;;;;;4335875;32;345387;-81
2023/12/14 03:57:34;;;;;;;25.97;15.93;;;;;;;;;;4365457;32;318142;-81
2023/12/14 04:00:01;;;;;;;30.23;15.20;;;;;;;;;;4358236;32;317726;-81
2023/12/14 04:02:28;;;;;;;24.53;14.77;;;;;;;;;;4369177;32;317956;-80
2023/12/14 04:04:55;;;;;;;28.43;15.73;;;;;;;;;;4359358;32;317366;-80
2023/12/14 04:07:23;;;;;;;27.80;16.90;;;;;;;;;;4360658;32;318285;-81
2023/12/14 04:09:50;;;;;;;26.77;16.77;;;;;;;;;;4369646;32;329883;-81
2023/12/14 04:12:17;;;;;;;20.50;11.77;;;;;;;;;;4374956;32;318288;-82
2023/12/14 04:14:44;;;;;;;16.00;11.47;;;;;;;;;;4384347;32;318050;-81
2023/12/14 04:17:12;;;;;;;17.63;10.90;;;;;;;;;;4365758;32;318274;-82
2023/12/14 04:19:39;;;;;;;15.37;9.87;;;;;;;;;;4383403;32;317966;-81
2023/12/14 04:22:06;;;;;;;15.80;9.47;;;;;;;;;;4374817;32;316375;-81
2023/12/14 04:24:34;;;;;;;13.90;9.73;;;;;;;;;;4383076;32;315201;-81
2023/12/14 04:27:01;;;;;;;13.03;8.73;;;;;;;;;;4369703;32;351981;-81
2023/12/14 04:29:28;;;;;;;15.50;9.07;;;;;;;;;;4373623;32;316418;-81
2023/12/14 04:31:55;;;;;;;11.87;8.93;;;;;;;;;;4366877;32;317337;-82
2023/12/14 04:34:22;;;;;;;13.70;8.93;;;;;;;;;;4368562;32;317351;-80
2023/12/14 04:36:49;;;;;;;14.37;9.37;;;;;;;;;;4368754;32;317342;-81
2023/12/14 04:39:16;;;;;;;14.00;9.77;;;;;;;;;;4352967;32;317659;-82
2023/12/14 04:41:45;;;;;;;21.03;12.47;;;;;;;;;;4369159;32;317214;-82
2023/12/14 04:44:12;;;;;;;36.63;18.43;;;;;;;;;;4356564;32;318431;-81
2023/12/14 04:46:39;;;;;;;35.23;18.93;;;;;;;;;;4367952;32;318733;-82
2023/12/14 04:49:06;;;;;;;27.43;17.13;;;;;;;;;;4354100;32;318327;-82
2023/12/14 04:51:33;;;;;;;19.83;12.43;;;;;;;;;;4365062;32;318109;-81
2023/12/14 04:54:00;;;;;;;21.43;14.03;;;;;;;;;;4357069;32;318049;-81
2023/12/14 04:56:27;;;;;;;29.57;16.30;;;;;;;;;;4366148;32;317551;-82
2023/12/14 04:58:55;;;;;;;22.67;14.40;;;;;;;;;;4366963;32;318039;-81
2023/12/14 05:01:22;;;;;;;27.37;16.07;;;;;;;;;;4346656;32;418594;-81
2023/12/14 05:03:49;;;;;;;28.37;15.83;;;;;;;;;;4366434;32;318301;-81
2023/12/14 05:06:16;;;;;;;24.93;16.17;;;;;;;;;;4355934;32;317423;-81
2023/12/14 05:08:42;;;;;;;31.33;18.17;;;;;;;;;;4364986;32;317980;-82
2023/12/14 05:11:09;;;;;;;27.87;17.23;;;;;;;;;;4349848;32;325063;-81
2023/12/14 05:13:36;;;;;;;25.00;14.83;;;;;;;;;;4367494;32;318240;-81
2023/12/14 05:16:05;;;;;;;28.60;15.23;;;;;;;;;;4357316;32;318127;-82
2023/12/14 05:18:32;;;;;;;18.97;13.33;;;;;;;;;;4368020;32;318625;-82
2023/12/14 05:21:00;;;;;;;23.07;15.07;;;;;;;;;;4358036;32;318273;-81
2023/12/14 05:23:26;;;;;;;20.90;12.57;;;;;;;;;;4359272;32;317351;-82
2023/12/14 05:25:53;;;;;;;18.03;11.27;;;;;;;;;;4366327;32;352867;-81
2023/12/14 05:28:20;;;;;;;24.33;15.30;;;;;;;;;;4354064;32;417879;-81
2023/12/14 05:30:47;;;;;;;23.67;14.63;;;;;;;;;;4366790;32;318405;-81
2023/12/14 05:33:15;;;;;;;20.87;13.17;;;;;;;;;;4350744;32;318245;-81
2023/12/14 05:35:43;;;;;;;19.77;13.53;;;;;;;;;;4366237;32;330601;-80
2023/12/14 05:38:10;;;;;;;24.37;16.07;;;;;;;;;;4354638;32;318060;-81
2023/12/14 05:40:36;;;;;;;24.07;14.63;;;;;;;;;;4374236;32;317581;-82
2023/12/14 05:43:03;;;;;;;30.33;17.70;;;;;;;;;;4368426;32;317992;-80
2023/12/14 05:45:30;;;;;;;25.57;16.73;;;;;;;;;;4364505;32;318061;-80
2023/12/14 05:47:57;;;;;;;23.53;15.60;;;;;;;;;;4355790;32;318029;-81
2023/12/14 05:50:26;;;;;;;24.30;16.10;;;;;;;;;;4364025;32;317461;-82
2023/12/14 05:52:52;;;;;;;34.47;21.27;;;;;;;;;;4363712;32;341630;-81
2023/12/14 05:55:21;;;;;;;33.17;20.83;;;;;;;;;;4350131;32;318303;-81
2023/12/14 05:57:49;;;;;;;40.10;24.17;;;;;;;;;;4368183;32;318293;-82
2023/12/14 06:00:16;;;;;;;44.97;29.13;;;;;;;;;;4363352;32;351884;-82
2023/12/14 06:02:43;;;;;;;52.77;31.67;;;;;;;;;;4369074;32;318009;-81
2023/12/14 06:05:10;;;;;;;47.30;33.70;;;;;;;;;;4348180;32;318256;-82
2023/12/14 06:07:39;;;;;;;32.87;24.77;;;;;;;;;;4366518;32;317976;-81
2023/12/14 06:10:07;;;;;;;28.07;20.13;;;;;;;;;;4355216;32;317408;-81
2023/12/14 06:12:33;;;;;;;30.77;19.73;;;;;;;;;;4365439;32;318191;-80
2023/12/14 06:15:00;;;;;;;32.30;21.13;;;;;;;;;;4356752;32;318250;-81
2023/12/14 06:17:28;;;;;;;23.20;14.90;;;;;;;;;;4376752;32;317323;-82
2023/12/14 06:19:55;;;;;;;26.93;19.30;;;;;;;;;;4376435;32;318629;-81
2023/12/14 06:22:22;;;;;;;28.73;17.33;;;;;;;;;;4375209;32;317644;-81
2023/12/14 06:24:50;;;;;;;38.60;21.43;;;;;;;;;;4365123;32;318249;-80
2023/12/14 06:27:17;;;;;;;28.90;21.00;;;;;;;;;;4349867;32;318128;-82
2023/12/14 06:29:44;;;;;;;37.67;25.40;;;;;;;;;;4365551;32;317209;-81
2023/12/14 06:32:11;;;;;;;35.53;21.53;;;;;;;;;;4355650;32;318412;-82
2023/12/14 06:34:38;;;;;;;46.60;27.57;;;;;;;;;;4366009;32;318097;-81
2023/12/14 06:37:05;;;;;;;36.97;24.80;;;;;;;;;;4350052;32;328015;-81
2023/12/14 06:39:32;;;;;;;32.63;23.30;;;;;;;;;;4361105;32;318371;-81
2023/12/14 06:42:00;;;;;;;34.23;21.67;;;;;;;;;;4353662;32;318220;-82
2023/12/14 06:44:27;;;;;;;52.00;29.57;;;;;;;;;;4364911;32;318335;-81
2023/12/14 06:46:54;;;;;;;35.97;23.30;;;;;;;;;;4362762;32;318458;-82
2023/12/14 06:49:22;;;;;;;69.60;39.33;;;;;;;;;;4345933;32;418572;-81
2023/12/14 06:51:49;;;;;;;71.27;40.70;;;;;;;;;;4363939;32;318710;-80
2023/12/14 06:54:15;;;;;;;70.50;41.80;;;;;;;;;;4354054;32;360112;-81
2023/12/14 06:56:42;;;;;;;77.87;44.37;;;;;;;;;;4366403;32;317428;-82
2023/12/14 06:59:11;;;;;;;74.57;44.80;;;;;;;;;;4348210;32;318354;-83
2023/12/14 07:01:38;;;;;;;121.50;65.43;;;;;;;;;;4359345;32;318189;-82
2023/12/14 07:04:05;;;;;;;98.67;56.23;;;;;;;;;;4352788;32;319563;-82
2023/12/14 07:06:32;;;;;;;96.00;50.27;;;;;;;;;;4362211;32;318143;-82
2023/12/14 07:08:59;;;;;;;63.07;42.93;;;;;;;;;;4354330;32;318573;-84
2023/12/14 07:11:25;;;;;;;56.87;36.47;;;;;;;;;;4356947;32;334750;-81
2023/12/14 07:13:52;;;;;;;62.93;42.53;;;;;;;;;;4362781;32;318450;-82
2023/12/14 07:16:21;;;;;;;64.57;39.50;;;;;;;;;;4353875;32;318732;-82
2023/12/14 07:18:47;;;;;;;51.50;30.43;;;;;;;;;;4360734;32;318105;-80
2023/12/14 07:21:14;;;;;;;70.37;42.53;;;;;;;;;;4348957;32;318274;-80
2023/12/14 07:23:41;;;;;;;80.70;46.67;;;;;;;;;;4364992;32;318256;-80
2023/12/14 07:26:08;;;;;;;102.47;51.33;;;;;;;;;;4356130;32;318225;-81
2023/12/14 07:28:35;;;;;;;100.87;63.50;;;;;;;;;;4366928;32;319137;-81
2023/12/14 07:31:02;;;;;;;115.43;71.70;;;;;;;;;;4355624;32;319426;-81
2023/12/14 07:33:30;;;;;;;144.17;80.77;;;;;;;;;;4364369;32;319164;-80
2023/12/14 07:35:57;;;;;;;143.73;84.67;;;;;;;;;;4354465;32;319514;-80
2023/12/14 07:38:24;;;;;;;178.50;92.33;;;;;;;;;;4361861;32;319171;-81
2023/12/14 07:40:52;;;;;;;160.63;84.57;;;;;;;;;;4364067;32;319180;-82
2023/12/14 07:43:19;;;;;;;137.03;82.73;;;;;;;;;;4346034;32;319339;-81
2023/12/14 07:45:46;;;;;;;156.30;88.47;;;;;;;;;;4364095;32;318606;-82
2023/12/14 07:48:13;;;;;;;156.50;89.77;;;;;;;;;;4355903;32;319318;-81
2023/12/14 07:50:41;;;;;;;186.03;100.00;;;;;;;;;;4366463;32;319482;-81
2023/12/14 07:53:08;;;;;;;188.93;101.33;;;;;;;;;;4349468;32;320122;-82
2023/12/14 07:55:35;;;;;;;179.27;99.67;;;;;;;;;;4365349;32;319155;-81
2023/12/14 07:58:02;;;;;;;171.33;99.93;;;;;;;;;;4356056;32;319121;-82
2023/12/14 08:00:29;;;;;;;160.10;93.63;;;;;;;;;;4368973;32;328713;-81
2023/12/14 08:02:55;;;;;;;150.87;96.30;;;;;;;;;;4358153;32;338749;-82
2023/12/14 08:05:24;;;;;;;149.43;93.47;;;;;;;;;;4364832;32;319055;-82
2023/12/14 08:07:53;;;;;;;170.10;99.30;;;;;;;;;;4373234;32;318823;-82
2023/12/14 08:10:20;;;;;;;145.87;93.77;;;;;;;;;;4357427;32;420053;-82
2023/12/14 08:12:48;;;;;;;157.33;102.20;;;;;;;;;;4369302;32;319511;-81
2023/12/14 08:15:16;;;;;;;184.57;108.90;;;;;;;;;;4352534;32;319679;-81
2023/12/14 08:17:44;;;;;;;164.57;98.83;;;;;;;;;;4371767;32;320253;-82
2023/12/14 08:20:12;;;;;;;126.80;80.13;;;;;;;;;;4359456;32;325305;-81
2023/12/14 08:22:43;;;;;;;110.83;71.73;;;;;;;;;;4362393;32;319157;-80
2023/12/14 08:25:13;;;;;;;154.70;92.30;;;;;;;;;;4339613;32;318507;-83
2023/12/14 08:27:40;;;;;;;167.97;96.83;;;;;;;;;;4372005;32;319293;-82
2023/12/14 08:30:08;;;;;;;147.40;87.17;;;;;;;;;;4357951;32;319517;-82
2023/12/14 08:32:36;;;;;;;126.57;64.10;;;;;;;;;;4367831;32;319225;-84
2023/12/14 08:35:03;;;;;;;123.80;65.03;;;;;;;;;;4355478;32;319139;-82
2023/12/14 08:37:30;;;;;;;112.87;66.30;;;;;;;;;;4366172;32;319287;-82
2023/12/14 08:39:58;;;;;;;115.27;67.07;;;;;;;;;;4359055;32;318636;-83
2023/12/14 08:42:26;;;;;;;118.00;64.37;;;;;;;;;;4368263;32;319199;-82
2023/12/14 08:44:53;;;;;;;106.03;63.17;;;;;;;;;;4365397;32;319361;-81
2023/12/14 08:47:23;;;;;;;97.47;57.40;;;;;;;;;;4350562;32;319618;-81
2023/12/14 08:49:50;;;;;;;100.53;59.93;;;;;;;;;;4367364;32;318425;-83
2023/12/14 08:52:18;;;;;;;92.27;59.17;;;;;;;;;;4355905;32;320079;-82
2023/12/14 08:54:45;;;;;;;92.83;56.30;;;;;;;;;;4364942;32;353598;-83
2023/12/14 08:57:12;;;;;;;78.03;50.97;;;;;;;;;;4350341;32;318047;-81
2023/12/14 08:59:40;;;;;;;86.97;51.03;;;;;;;;;;4364110;32;317699;-82
2023/12/14 09:02:07;;;;;;;83.63;47.73;;;;;;;;;;4339258;32;331559;-81
2023/12/14 09:04:35;;;;;;;81.43;48.63;;;;;;;;;;4336956;32;357969;-82
2023/12/14 09:07:03;;;;;;;98.93;57.73;;;;;;;;;;4366418;32;317963;-82
2023/12/14 09:09:32;;;;;;;91.10;54.43;;;;;;;;;;4368979;32;318171;-83
2023/12/14 09:11:59;;;;;;;112.13;53.53;;;;;;;;;;4344593;32;417130;-81
2023/12/14 09:14:26;;;;;;;102.30;54.27;;;;;;;;;;4364701;32;319317;-82
2023/12/14 09:16:54;;;;;;;92.93;55.70;;;;;;;;;;4352632;32;319384;-82
2023/12/14 09:19:21;;;;;;;100.60;56.73;;;;;;;;;;4368018;32;317725;-83
2023/12/14 09:21:48;;;;;;;93.20;58.33;;;;;;;;;;4356962;32;318311;-83
2023/12/14 09:24:15;;;;;;;105.03;66.17;;;;;;;;;;4382415;32;317988;-81
2023/12/14 09:26:42;;;;;;;108.93;66.70;;;;;;;;;;4370334;32;319196;-81
2023/12/14 09:29:09;;;;;;;114.23;67.30;;;;;;;;;;4379435;32;344168;-82
2023/12/14 09:31:36;;;;;;;121.30;70.23;;;;;;;;;;4357298;32;330556;-82
2023/12/14 09:34:04;;;;;;;109.33;65.83;;;;;;;;;;4359643;32;320411;-81
2023/12/14 09:36:31;;;;;;;103.47;62.20;;;;;;;;;;4360435;32;319474;-81
2023/12/14 09:38:58;;;;;;;117.47;67.53;;;;;;;;;;4376191;32;321359;-82
2023/12/14 09:41:25;;;;;;;107.20;66.13;;;;;;;;;;4372566;32;320227;-85
2023/12/14 09:43:53;;;;;;;92.90;59.13;;;;;;;;;;4349401;32;320226;-84
2023/12/14 09:46:21;;;;;;;87.50;56.17;;;;;;;;;;4366678;32;331705;-83
2023/12/14 09:48:50;;;;;;;90.70;55.83;;;;;;;;;;4343316;32;318945;-84
2023/12/14 09:51:19;;;;;;;92.43;57.93;;;;;;;;;;4364712;32;319169;-82
2023/12/14 09:53:46;;;;;;;89.27;56.53;;;;;;;;;;4350986;32;318585;-83
2023/12/14 09:56:13;;;;;;;99.50;58.47;;;;;;;;;;4366854;32;319445;-84
2023/12/14 09:58:40;;;;;;;95.33;57.07;;;;;;;;;;4355654;32;352478;-82
2023/12/14 10:01:22;;;;;;;90.13;51.73;;;;;;;;;;4367660;32;320911;-84
2023/12/14 10:03:49;;;;;;;85.57;52.63;;;;;;;;;;4355951;32;318399;-84
2023/12/14 10:06:16;;;;;;;94.13;55.93;;;;;;;;;;4366187;32;318693;-84
2023/12/14 10:08:55;;;;;;;83.40;51.53;;;;;;;;;;4356214;32;319316;-83
2023/12/14 10:11:22;;;;;;;83.60;46.63;;;;;;;;;;4367958;32;319052;-82
2023/12/14 10:13:49;;;;;;;84.50;50.03;;;;;;;;;;4351346;32;319148;-83
2023/12/14 10:16:28;;;;;;;99.97;57.13;;;;;;;;;;4366921;32;319320;-82
2023/12/14 10:18:56;;;;;;;98.40;54.97;;;;;;;;;;4341651;32;319707;-84
2023/12/14 10:21:23;;;;;;;81.17;48.83;;;;;;;;;;4353096;32;319749;-85
2023/12/14 10:23:52;;;;;;;77.47;41.17;;;;;;;;;;4343385;32;319348;-83
2023/12/14 10:26:19;;;;;;;61.53;37.30;;;;;;;;;;4349581;32;333036;-83
2023/12/14 10:28:45;;;;;;;62.77;40.30;;;;;;;;;;4342510;32;319251;-82
2023/12/14 10:31:12;;;;;;;73.97;43.67;;;;;;;;;;4366668;32;318380;-84
2023/12/14 10:33:39;;;;;;;78.70;42.67;;;;;;;;;;4351365;32;318934;-82
2023/12/14 10:36:08;;;;;;;75.97;42.77;;;;;;;;;;4363339;32;319156;-82
2023/12/14 10:38:39;;;;;;;71.17;39.50;;;;;;;;;;4355503;32;319357;-82
2023/12/14 10:41:09;;;;;;;72.27;46.23;;;;;;;;;;4366355;32;319391;-83
2023/12/14 10:43:37;;;;;;;72.00;42.13;;;;;;;;;;4357650;32;319160;-81
2023/12/14 10:46:08;;;;;;;73.93;42.37;;;;;;;;;;4373872;32;317376;-82
2023/12/14 10:48:37;;;;;;;69.43;41.93;;;;;;;;;;4366973;32;319122;-83
2023/12/14 10:51:05;;;;;;;60.67;38.00;;;;;;;;;;4376739;32;318907;-82
2023/12/14 10:53:33;;;;;;;65.80;38.80;;;;;;;;;;4355564;32;319113;-83
2023/12/14 10:56:01;;;;;;;62.60;32.87;;;;;;;;;;4355566;32;318447;-82
2023/12/14 10:58:47;;;;;;;111.00;70.60;;;;;;;;;;4364636;32;331202;-83
2023/12/14 11:01:15;;;;;;;76.17;46.07;;;;;;;;;;4356181;32;420826;-83
2023/12/14 11:03:43;;;;;;;76.97;41.97;;;;;;;;;;4353016;32;318970;-83
2023/12/14 11:06:32;;;;;;;70.93;41.30;;;;;;;;;;4370832;32;319303;-83
2023/12/14 11:09:02;;;;;;;69.77;41.77;;;;;;;;;;4356078;32;419815;-82
2023/12/14 11:11:39;;;;;;;64.20;39.00;;;;;;;;;;4368943;32;319369;-83
2023/12/14 11:14:09;;;;;;;74.07;42.80;;;;;;;;;;4354446;32;418925;-82
2023/12/14 11:16:44;;;;;;;77.47;44.27;;;;;;;;;;4357053;32;319378;-80
2023/12/14 11:19:41;;;;;;;72.37;45.43;;;;;;;;;;4365872;32;318990;-81
2023/12/14 11:22:14;;;;;;;79.90;44.80;;;;;;;;;;4320756;32;420122;-81
2023/12/14 11:24:44;;;;;;;84.63;48.07;;;;;;;;;;4348605;32;319360;-81
2023/12/14 11:27:11;;;;;;;101.87;52.23;;;;;;;;;;4366118;32;319381;-80
2023/12/14 11:29:41;;;;;;;85.87;51.43;;;;;;;;;;4358251;32;319566;-81
2023/12/14 11:32:09;;;;;;;86.63;56.47;;;;;;;;;;4352618;32;319250;-81
2023/12/14 11:34:37;;;;;;;85.63;55.73;;;;;;;;;;4343881;32;320210;-80
2023/12/14 11:37:06;;;;;;;109.47;60.97;;;;;;;;;;4358464;32;319372;-81
2023/12/14 11:39:32;;;;;;;129.43;80.17;;;;;;;;;;4359652;32;320321;-81
2023/12/14 11:42:00;;;;;;;151.60;89.10;;;;;;;;;;4361057;32;320375;-80
2023/12/14 11:44:27;;;;;;;181.33;109.40;;;;;;;;;;4367857;32;320269;-81
2023/12/14 11:46:55;;;;;;;162.93;104.80;;;;;;;;;;4364030;32;322142;-81
2023/12/14 11:49:26;;;;;;;123.67;76.73;;;;;;;;;;4369819;32;321229;-82
2023/12/14 11:51:53;;;;;;;133.83;80.93;;;;;;;;;;4350847;32;320565;-81
2023/12/14 11:54:20;;;;;;;140.80;89.97;;;;;;;;;;4367480;32;320419;-80
2023/12/14 11:56:48;;;;;;;149.17;87.93;;;;;;;;;;4378285;32;320398;-80
2023/12/14 11:59:17;;;;;;;147.60;91.20;;;;;;;;;;4392308;32;319078;-81
2023/12/14 12:01:57;;;;;;;139.83;88.63;;;;;;;;;;4376969;32;320253;-80
2023/12/14 12:04:25;;;;;;;154.20;89.77;;;;;;;;;;4389858;32;319246;-80
2023/12/14 12:07:01;;;;;;;134.80;87.57;;;;;;;;;;4368979;32;319546;-81
2023/12/14 12:09:45;;;;;;;148.17;83.37;;;;;;;;;;4373973;32;341729;-81
2023/12/14 12:12:13;;;;;;;135.17;83.03;;;;;;;;;;4356140;32;417859;-81
2023/12/14 12:14:41;;;;;;;118.93;74.00;;;;;;;;;;4372071;32;320306;-80
2023/12/14 12:17:10;;;;;;;112.93;77.07;;;;;;;;;;4385103;32;319557;-80
2023/12/14 12:19:38;;;;;;;131.77;78.93;;;;;;;;;;4360601;32;320241;-79
2023/12/14 12:22:05;;;;;;;120.50;83.50;;;;;;;;;;4364740;32;320304;-81
2023/12/14 12:24:32;;;;;;;126.37;84.63;;;;;;;;;;4358604;32;320642;-81
2023/12/14 12:27:01;;;;;;;133.07;84.03;;;;;;;;;;4368147;32;320085;-82
2023/12/14 12:29:28;;;;;;;136.60;85.47;;;;;;;;;;4365920;32;319090;-81
2023/12/14 12:31:58;;;;;;;137.90;84.17;;;;;;;;;;4347670;32;320444;-81
2023/12/14 12:34:30;;;;;;;135.37;86.03;;;;;;;;;;4364316;32;320344;-80
2023/12/14 12:36:59;;;;;;;125.20;83.77;;;;;;;;;;4349867;32;421207;-82
2023/12/14 12:39:28;;;;;;;130.93;88.17;;;;;;;;;;4364518;32;319056;-82
2023/12/14 12:41:56;;;;;;;144.90;88.10;;;;;;;;;;4340835;32;344508;-81
2023/12/14 12:44:23;;;;;;;140.30;87.60;;;;;;;;;;4371223;32;320599;-80
2023/12/14 12:46:50;;;;;;;128.77;85.23;;;;;;;;;;4352590;32;333536;-80
2023/12/14 12:49:16;;;;;;;129.57;83.03;;;;;;;;;;4360321;32;320249;-80
2023/12/14 12:51:45;;;;;;;138.30;84.20;;;;;;;;;;4347349;32;320891;-82
2023/12/14 12:54:12;;;;;;;127.97;81.67;;;;;;;;;;4362842;32;321614;-79
2023/12/14 12:56:39;;;;;;;127.90;79.17;;;;;;;;;;4349941;32;320534;-79
2023/12/14 12:59:06;;;;;;;114.47;73.13;;;;;;;;;;4362043;32;320571;-80
2023/12/14 13:01:33;;;;;;;128.83;76.10;;;;;;;;;;4348954;32;320355;-79
2023/12/14 13:04:01;;;;;;;114.17;73.60;;;;;;;;;;4354505;32;320409;-79
2023/12/14 13:06:28;;;;;;;121.40;73.00;;;;;;;;;;4358159;32;321264;-80
2023/12/14 13:08:56;;;;;;;112.73;75.10;;;;;;;;;;4352867;32;320360;-82
2023/12/14 13:11:25;;;;;;;125.63;72.77;;;;;;;;;;4359588;32;346098;-79
2023/12/14 13:13:51;;;;;;;139.80;77.50;;;;;;;;;;4344364;32;319960;-80
2023/12/14 13:16:18;;;;;;;136.67;81.73;;;;;;;;;;4360982;32;320502;-80
2023/12/14 13:18:45;;;;;;;126.00;74.23;;;;;;;;;;4349658;32;320283;-79
2023/12/14 13:21:12;;;;;;;152.77;86.90;;;;;;;;;;4361579;32;320229;-81
2023/12/14 13:23:40;;;;;;;138.43;82.93;;;;;;;;;;4348966;32;321423;-80
2023/12/14 13:26:08;;;;;;;123.53;67.77;;;;;;;;;;4356638;32;344576;-80
2023/12/14 13:28:35;;;;;;;99.87;62.17;;;;;;;;;;4351663;32;320510;-80
2023/12/14 13:31:02;;;;;;;78.90;51.50;;;;;;;;;;4362565;32;319685;-80
2023/12/14 13:33:29;;;;;;;78.83;43.40;;;;;;;;;;4360588;32;319478;-81
2023/12/14 13:35:56;;;;;;;45.20;23.07;;;;;;;;;;4342655;32;418517;-80
2023/12/14 13:38:23;;;;;;;22.90;15.57;;;;;;;;;;4360490;32;319690;-80
2023/12/14 13:40:50;;;;;;;20.57;13.40;;;;;;;;;;4352993;32;323919;-80
2023/12/14 13:43:18;;;;;;;14.80;9.83;;;;;;;;;;4362221;32;319713;-80
2023/12/14 13:45:46;;;;;;;14.63;9.43;;;;;;;;;;4345442;32;318376;-80
2023/12/14 13:48:12;;;;;;;21.07;11.23;;;;;;;;;;4362734;32;318184;-80
2023/12/14 13:50:40;;;;;;;14.23;9.47;;;;;;;;;;4353158;32;319618;-81
2023/12/14 13:53:07;;;;;;;17.17;11.10;;;;;;;;;;4362288;32;318187;-80
2023/12/14 13:55:35;;;;;;;32.43;19.23;;;;;;;;;;4350700;32;319657;-79
2023/12/14 13:58:02;;;;;;;28.03;17.83;;;;;;;;;;4355848;32;318736;-80
2023/12/14 14:00:30;;;;;;;25.53;13.47;;;;;;;;;;4362010;32;319113;-81
2023/12/14 14:02:57;;;;;;;34.33;19.97;;;;;;;;;;4349512;32;418730;-80
2023/12/14 14:05:24;;;;;;;29.23;18.23;;;;;;;;;;4361361;32;319815;-80